createdAt,value
2022-11-22T00:00:22.754Z,24.40
2022-11-22T00:02:53.595Z,24.40
2022-11-22T00:05:24.546Z,24.40
2022-11-22T00:07:55.664Z,24.50
2022-11-22T00:10:26.276Z,24.50
2022-11-22T00:12:57.564Z,24.60
2022-11-22T00:15:28.457Z,24.70
2022-11-22T00:17:59.222Z,24.70
2022-11-22T00:20:30.911Z,24.70
2022-11-22T00:23:01.890Z,24.80
2022-11-22T00:25:32.758Z,24.70
2022-11-22T00:28:03.165Z,24.80
2022-11-22T00:30:33.968Z,24.80
2022-11-22T00:33:04.848Z,24.90
2022-11-22T00:35:35.528Z,24.90
2022-11-22T00:38:05.899Z,24.90
2022-11-22T00:40:36.579Z,25.10
2022-11-22T00:43:07.919Z,25.10
2022-11-22T00:45:38.374Z,25.30
2022-11-22T00:48:09.332Z,25.50
2022-11-22T00:50:40.144Z,25.60
2022-11-22T00:53:10.329Z,25.80
2022-11-22T00:55:40.742Z,26.00
2022-11-22T00:58:11.681Z,26.00
2022-11-22T01:00:41.778Z,26.10
2022-11-22T01:03:16.156Z,26.30
2022-11-22T01:05:46.494Z,26.60
2022-11-22T01:08:16.960Z,26.60
2022-11-22T01:10:47.498Z,26.70
2022-11-22T01:13:18.021Z,26.50
2022-11-22T01:15:49.195Z,26.70
2022-11-22T01:18:20.039Z,26.60
2022-11-22T01:20:50.564Z,26.80
2022-11-22T01:23:21.194Z,26.70
2022-11-22T01:25:51.883Z,27.00
2022-11-22T01:28:23.145Z,27.00
2022-11-22T01:30:54.550Z,27.20
2022-11-22T01:33:24.718Z,27.30
2022-11-22T01:35:55.813Z,27.40
2022-11-22T01:38:26.966Z,27.60
2022-11-22T01:40:57.798Z,27.80
2022-11-22T01:43:30.148Z,27.90
2022-11-22T01:46:04.342Z,28.00
2022-11-22T01:48:54.065Z,28.10
2022-11-22T01:51:34.645Z,28.10
2022-11-22T01:54:11.016Z,28.10
2022-11-22T01:56:44.409Z,28.30
2022-11-22T01:59:18.611Z,28.40
2022-11-22T02:01:49.146Z,28.70
2022-11-22T02:04:21.436Z,28.80
2022-11-22T02:07:14.890Z,28.80
2022-11-22T02:09:46.336Z,29.20
2022-11-22T02:12:19.356Z,28.90
2022-11-22T02:14:50.783Z,29.10
2022-11-22T02:17:21.299Z,29.20
2022-11-22T02:19:54.278Z,29.20
2022-11-22T02:22:50.196Z,29.50
2022-11-22T02:25:50.064Z,29.50
2022-11-22T02:28:21.607Z,29.40
2022-11-22T02:30:52.350Z,29.30
2022-11-22T02:33:23.175Z,29.80
2022-11-22T02:35:54.634Z,29.90
2022-11-22T02:38:28.871Z,29.90
2022-11-22T02:41:13.991Z,29.90
2022-11-22T02:43:49.374Z,29.90
2022-11-22T02:46:25.130Z,30.00
2022-11-22T02:48:55.256Z,30.20
2022-11-22T02:51:26.471Z,29.90
2022-11-22T02:53:58.347Z,29.90
2022-11-22T02:56:29.147Z,30.10
2022-11-22T02:58:59.883Z,30.60
2022-11-22T03:01:30.970Z,30.40
2022-11-22T03:04:01.440Z,30.50
2022-11-22T03:06:31.862Z,30.50
2022-11-22T03:09:02.059Z,30.90
2022-11-22T03:11:32.594Z,30.80
2022-11-22T03:14:03.722Z,31.20
2022-11-22T03:16:34.888Z,31.00
2022-11-22T03:19:05.928Z,31.30
2022-11-22T03:21:37.038Z,31.10
2022-11-22T03:24:08.882Z,31.30
2022-11-22T03:26:40.014Z,31.40
2022-11-22T03:29:10.471Z,31.30
2022-11-22T03:31:41.576Z,31.00
2022-11-22T03:34:14.966Z,31.00
2022-11-22T03:36:45.332Z,31.10
2022-11-22T03:39:15.877Z,31.10
2022-11-22T03:41:46.671Z,31.20
2022-11-22T03:44:17.117Z,31.60
2022-11-22T03:46:47.948Z,32.00
2022-11-22T03:49:18.422Z,32.30
2022-11-22T03:51:48.758Z,32.40
2022-11-22T03:54:19.499Z,32.50
2022-11-22T03:56:50.272Z,32.60
2022-11-22T03:59:21.183Z,32.60
2022-11-22T04:01:52.013Z,32.40
2022-11-22T04:04:22.474Z,32.30
2022-11-22T04:06:53.250Z,32.50
2022-11-22T04:09:23.703Z,32.30
2022-11-22T04:11:54.424Z,32.00
2022-11-22T04:14:44.712Z,32.20
2022-11-22T04:17:15.823Z,32.30
2022-11-22T04:20:05.252Z,32.70
2022-11-22T04:22:35.661Z,32.70
2022-11-22T04:25:26.006Z,32.60
2022-11-22T04:27:57.757Z,33.00
2022-11-22T04:30:48.484Z,33.30
2022-11-22T04:33:19.820Z,33.70
2022-11-22T04:35:50.158Z,33.40
2022-11-22T04:38:21.550Z,33.30
2022-11-22T04:40:52.808Z,33.10
2022-11-22T04:43:49.408Z,32.90
2022-11-22T04:46:19.754Z,32.90
2022-11-22T04:48:50.494Z,33.00
2022-11-22T04:51:40.448Z,33.00
2022-11-22T04:54:10.608Z,33.00
2022-11-22T04:56:41.309Z,33.50
2022-11-22T04:59:11.638Z,33.30
2022-11-22T05:01:42.000Z,33.40
2022-11-22T05:04:12.739Z,33.50
2022-11-22T05:06:43.350Z,33.60
2022-11-22T05:09:14.166Z,33.50
2022-11-22T05:11:44.743Z,33.70
2022-11-22T05:14:15.638Z,33.80
2022-11-22T05:16:46.822Z,33.90
2022-11-22T05:19:16.898Z,33.70
2022-11-22T05:21:47.449Z,34.00
2022-11-22T05:24:17.595Z,33.90
2022-11-22T05:26:47.927Z,34.30
2022-11-22T05:29:19.032Z,34.40
2022-11-22T05:31:51.488Z,34.30
2022-11-22T05:34:22.060Z,34.00
2022-11-22T05:36:52.562Z,34.30
2022-11-22T05:39:22.741Z,34.30
2022-11-22T05:41:59.166Z,34.10
2022-11-22T05:44:29.019Z,34.40
2022-11-22T05:46:59.458Z,34.80
2022-11-22T05:49:30.171Z,34.70
2022-11-22T05:52:00.545Z,34.80
2022-11-22T05:54:31.228Z,35.30
2022-11-22T05:57:02.281Z,35.40
2022-11-22T05:59:32.829Z,35.10
2022-11-22T06:02:03.735Z,35.30
2022-11-22T06:04:34.049Z,35.40
2022-11-22T06:07:09.623Z,35.30
2022-11-22T06:09:40.084Z,34.90
2022-11-22T06:12:10.353Z,35.00
2022-11-22T06:14:43.478Z,35.20
2022-11-22T06:17:15.037Z,34.70
2022-11-22T06:19:45.576Z,34.10
2022-11-22T06:22:15.689Z,34.90
2022-11-22T06:24:46.125Z,35.40
2022-11-22T06:27:16.410Z,35.80
2022-11-22T06:29:46.528Z,35.40
2022-11-22T06:32:17.035Z,35.60
2022-11-22T06:34:47.365Z,36.00
2022-11-22T06:37:18.607Z,36.30
2022-11-22T06:39:48.980Z,36.40
2022-11-22T06:42:19.779Z,36.30
2022-11-22T06:44:49.935Z,35.70
2022-11-22T06:47:20.638Z,35.50
2022-11-22T06:49:51.344Z,35.30
2022-11-22T06:52:21.875Z,35.70
2022-11-22T06:54:52.590Z,35.90
2022-11-22T06:57:23.729Z,35.20
2022-11-22T06:59:53.779Z,35.50
2022-11-22T07:02:23.925Z,34.70
2022-11-22T07:05:23.252Z,34.50
2022-11-22T07:07:44.492Z,34.90
2022-11-22T07:10:15.955Z,35.20
2022-11-22T07:12:46.625Z,35.50
2022-11-22T07:15:17.501Z,35.70
2022-11-22T07:17:47.959Z,35.80
2022-11-22T07:20:18.244Z,35.40
2022-11-22T07:22:50.631Z,34.80
2022-11-22T07:25:21.693Z,34.30
2022-11-22T07:27:54.685Z,34.40
2022-11-22T07:30:25.178Z,34.50
2022-11-22T07:32:56.458Z,34.50
2022-11-22T07:35:27.278Z,34.70
2022-11-22T07:37:58.129Z,35.20
2022-11-22T07:40:28.870Z,35.20
2022-11-22T07:42:59.409Z,35.30
2022-11-22T07:45:29.638Z,35.60
2022-11-22T07:48:02.740Z,34.90
2022-11-22T07:50:34.051Z,34.40
2022-11-22T07:53:04.774Z,34.70
2022-11-22T07:55:35.568Z,35.30
2022-11-22T07:58:06.689Z,35.50
2022-11-22T08:00:37.181Z,35.80
2022-11-22T08:03:09.229Z,35.80
2022-11-22T08:05:40.112Z,35.50
2022-11-22T08:08:11.656Z,34.90
2022-11-22T08:10:42.589Z,34.60
2022-11-22T08:13:13.832Z,34.30
2022-11-22T08:15:44.749Z,34.30
2022-11-22T08:18:15.551Z,34.30
2022-11-22T08:20:46.203Z,34.30
2022-11-22T08:23:17.039Z,34.40
2022-11-22T08:25:48.641Z,34.90
2022-11-22T08:28:19.412Z,35.00
2022-11-22T08:30:50.308Z,34.30
2022-11-22T08:33:20.909Z,34.20
2022-11-22T08:35:52.752Z,34.30
2022-11-22T08:38:23.353Z,34.40
2022-11-22T08:40:54.603Z,34.30
2022-11-22T08:43:25.367Z,34.40
2022-11-22T08:46:00.564Z,34.20
2022-11-22T08:48:33.710Z,33.90
2022-11-22T08:51:08.452Z,33.80
2022-11-22T08:53:46.075Z,33.90
2022-11-22T08:56:18.634Z,33.90
2022-11-22T08:58:49.451Z,33.90
2022-11-22T09:01:22.813Z,33.80
2022-11-22T09:03:53.885Z,34.00
2022-11-22T09:09:36.356Z,34.10
2022-11-22T09:12:05.918Z,33.90
2022-11-22T09:14:36.540Z,34.20
2022-11-22T09:17:08.212Z,34.00
2022-11-22T09:19:40.548Z,34.00
2022-11-22T09:22:11.359Z,33.90
2022-11-22T09:24:41.461Z,33.80
2022-11-22T09:27:11.847Z,33.70
2022-11-22T09:29:42.537Z,33.70
2022-11-22T09:32:13.154Z,33.40
2022-11-22T09:34:44.276Z,33.50
2022-11-22T09:37:18.770Z,33.50
2022-11-22T09:39:49.304Z,33.40
2022-11-22T09:42:49.675Z,33.30
2022-11-22T09:45:44.540Z,33.30
2022-11-22T09:48:48.941Z,33.10
2022-11-22T09:51:27.511Z,33.00
2022-11-22T09:54:23.200Z,32.90
2022-11-22T09:56:58.350Z,32.90
2022-11-22T09:59:35.449Z,32.90
2022-11-22T10:02:27.271Z,33.00
2022-11-22T10:05:00.000Z,33.00
2022-11-22T10:07:39.459Z,32.80
2022-11-22T10:10:27.183Z,32.80
2022-11-22T10:13:15.795Z,32.80
2022-11-22T10:16:09.488Z,33.00
2022-11-22T10:18:50.832Z,33.10
2022-11-22T10:21:22.159Z,32.80
2022-11-22T10:23:53.684Z,32.80
2022-11-22T10:26:30.839Z,32.80
2022-11-22T10:29:32.503Z,32.70
2022-11-22T10:32:30.938Z,32.70
2022-11-22T10:35:40.641Z,32.50
2022-11-22T10:38:49.206Z,32.50
2022-11-22T10:41:58.519Z,32.40
2022-11-22T10:44:56.537Z,32.50
2022-11-22T10:48:02.765Z,32.50
2022-11-22T10:51:09.352Z,32.30
2022-11-22T10:54:19.616Z,32.10
2022-11-22T10:57:28.853Z,32.00
2022-11-22T11:00:23.161Z,32.00
2022-11-22T11:03:19.055Z,32.10
2022-11-22T11:13:01.490Z,32.10
2022-11-22T11:15:55.981Z,32.00
2022-11-22T11:18:47.928Z,32.00
2022-11-22T11:21:18.558Z,32.00
2022-11-22T11:23:49.935Z,32.00
2022-11-22T11:26:39.448Z,32.00
2022-11-22T11:29:49.081Z,32.00
2022-11-22T11:32:23.629Z,32.00
2022-11-22T11:35:09.628Z,32.00
2022-11-22T11:37:43.131Z,32.10
2022-11-22T11:40:34.678Z,31.90
2022-11-22T11:43:25.418Z,32.00
2022-11-22T11:45:56.255Z,31.60
2022-11-22T11:48:39.893Z,31.40
2022-11-22T11:51:50.078Z,31.40
2022-11-22T11:54:23.667Z,31.40
2022-11-22T11:57:16.026Z,31.50
2022-11-22T11:59:49.536Z,31.50
2022-11-22T12:02:43.016Z,31.40
2022-11-22T12:05:34.094Z,31.30
2022-11-22T12:08:05.115Z,31.30
2022-11-22T12:10:51.549Z,31.30
2022-11-22T12:14:18.348Z,31.30
2022-11-22T12:16:49.407Z,31.30
2022-11-22T12:20:00.551Z,31.30
2022-11-22T12:23:09.810Z,31.20
2022-11-22T12:25:42.339Z,31.00
2022-11-22T12:28:35.027Z,30.90
2022-11-22T12:31:20.624Z,30.90
2022-11-22T12:33:59.190Z,30.90
2022-11-22T12:37:02.910Z,30.90
2022-11-22T12:39:37.271Z,30.80
2022-11-22T12:42:26.708Z,30.80
2022-11-22T12:45:07.277Z,30.70
2022-11-22T12:47:45.882Z,30.60
2022-11-22T12:50:41.172Z,30.90
2022-11-22T12:53:40.952Z,31.10
2022-11-22T12:56:29.825Z,30.80
2022-11-22T12:59:34.637Z,30.60
2022-11-22T13:02:44.421Z,30.60
2022-11-22T13:05:38.338Z,30.60
2022-11-22T13:08:40.741Z,30.60
2022-11-22T13:11:21.128Z,30.40
2022-11-22T13:13:56.824Z,30.50
2022-11-22T13:16:27.128Z,30.70
2022-11-22T13:19:09.758Z,30.80
2022-11-22T13:22:15.280Z,30.60
2022-11-22T13:25:25.242Z,30.80
2022-11-22T13:28:00.487Z,30.80
2022-11-22T13:30:32.667Z,30.60
2022-11-22T13:33:03.568Z,30.60
2022-11-22T13:35:41.018Z,30.50
2022-11-22T13:38:19.925Z,30.50
2022-11-22T13:40:52.799Z,30.50
2022-11-22T13:43:50.133Z,30.50
2022-11-22T13:47:00.106Z,30.60
2022-11-22T13:49:51.402Z,30.70
2022-11-22T13:52:56.803Z,30.60
2022-11-22T13:55:41.781Z,30.30
2022-11-22T13:58:53.399Z,30.30
2022-11-22T14:02:00.230Z,30.50
2022-11-22T14:04:39.830Z,30.70
2022-11-22T14:07:44.490Z,30.80
2022-11-22T14:10:54.690Z,30.60
2022-11-22T14:13:57.792Z,30.30
2022-11-22T14:16:53.999Z,30.20
2022-11-22T14:19:50.275Z,30.30
2022-11-22T14:22:46.932Z,30.20
2022-11-22T14:25:56.145Z,30.10
2022-11-22T14:29:02.237Z,30.00
2022-11-22T14:31:35.336Z,30.10
2022-11-22T14:34:29.909Z,30.20
2022-11-22T14:37:39.392Z,30.30
2022-11-22T14:40:28.774Z,29.90
2022-11-22T14:43:20.105Z,29.70
2022-11-22T14:46:03.575Z,30.10
2022-11-22T14:48:39.245Z,30.20
2022-11-22T14:51:16.967Z,30.20
2022-11-22T14:54:04.980Z,30.20
2022-11-22T14:56:37.790Z,29.90
2022-11-22T14:59:47.744Z,29.60
2022-11-22T15:02:57.075Z,29.90
2022-11-22T15:09:13.689Z,30.00
2022-11-22T15:09:46.860Z,30.20
2022-11-22T15:12:55.613Z,29.60
2022-11-22T15:57:54.094Z,29.90
2022-11-22T16:00:30.662Z,29.40
2022-11-22T16:03:04.454Z,28.90
2022-11-22T16:06:06.430Z,28.80
2022-11-22T16:08:32.378Z,28.90
2022-11-22T16:11:03.313Z,29.30
2022-11-22T16:13:38.400Z,29.60
2022-11-22T16:16:35.232Z,29.60
2022-11-22T16:19:26.471Z,29.10
2022-11-22T16:22:04.612Z,29.00
2022-11-22T16:24:35.261Z,29.30
2022-11-22T16:27:16.736Z,29.40
2022-11-22T16:29:53.910Z,29.30
2022-11-22T16:32:24.387Z,28.80
2022-11-22T16:35:08.363Z,28.90
2022-11-22T16:37:48.243Z,29.20
2022-11-22T16:40:18.907Z,29.60
2022-11-22T16:42:49.720Z,29.60
2022-11-22T16:45:24.500Z,29.20
2022-11-22T16:48:16.562Z,29.00
2022-11-22T16:50:50.018Z,29.20
2022-11-22T16:53:20.365Z,28.90
2022-11-22T16:55:51.748Z,28.80
2022-11-22T16:58:25.015Z,28.60
2022-11-22T17:00:58.287Z,28.50
2022-11-22T17:03:35.170Z,28.50
2022-11-22T17:06:05.741Z,28.40
2022-11-22T17:08:36.049Z,28.40
2022-11-22T17:11:06.392Z,28.50
2022-11-22T17:13:36.513Z,28.40
2022-11-22T17:16:07.093Z,28.30
2022-11-22T17:18:37.127Z,28.40
2022-11-22T17:21:30.321Z,28.40
2022-11-22T17:24:07.160Z,28.50
2022-11-22T17:26:38.141Z,28.30
2022-11-22T17:29:11.161Z,28.40
2022-11-22T17:31:53.266Z,28.30
2022-11-22T17:34:23.649Z,28.30
2022-11-22T17:36:54.502Z,28.50
2022-11-22T17:39:24.994Z,28.40
2022-11-22T17:41:55.564Z,28.40
2022-11-22T17:44:27.269Z,28.50
2022-11-22T17:46:57.761Z,28.20
2022-11-22T17:49:28.128Z,28.20
2022-11-22T17:51:58.265Z,28.20
2022-11-22T17:54:28.845Z,28.20
2022-11-22T17:56:59.269Z,28.20
2022-11-22T17:59:30.894Z,28.10
2022-11-22T18:02:01.641Z,28.10
2022-11-22T18:04:32.345Z,28.10
2022-11-22T18:07:03.117Z,28.20
2022-11-22T18:09:36.075Z,28.10
2022-11-22T18:12:06.724Z,28.00
2022-11-22T18:14:37.295Z,28.10
2022-11-22T18:17:08.220Z,28.00
2022-11-22T18:19:38.707Z,28.00
2022-11-22T18:22:09.153Z,28.10
2022-11-22T18:24:39.586Z,28.00
2022-11-22T18:27:10.110Z,28.00
2022-11-22T18:29:43.202Z,27.90
2022-11-22T18:32:13.982Z,28.00
2022-11-22T18:34:45.947Z,28.00
2022-11-22T18:37:16.780Z,28.00
2022-11-22T18:39:47.257Z,28.00
2022-11-22T18:42:18.716Z,28.00
2022-11-22T18:44:48.847Z,27.90
2022-11-22T18:47:19.336Z,27.80
2022-11-22T18:49:50.584Z,27.80
2022-11-22T18:52:21.309Z,27.80
2022-11-22T18:54:53.150Z,27.80
2022-11-22T18:57:23.601Z,28.00
2022-11-22T18:59:54.514Z,27.90
2022-11-22T19:02:28.910Z,27.80
2022-11-22T19:04:59.437Z,27.70
2022-11-22T19:07:30.546Z,27.80
2022-11-22T19:10:01.318Z,27.70
2022-11-22T19:12:31.863Z,27.80
2022-11-22T19:15:02.694Z,27.80
2022-11-22T19:17:33.210Z,27.90
2022-11-22T19:20:03.603Z,27.80
2022-11-22T19:22:34.353Z,27.70
2022-11-22T19:25:04.901Z,27.80
2022-11-22T19:27:35.013Z,27.70
2022-11-22T19:30:05.806Z,27.70
2022-11-22T19:32:37.179Z,27.80
2022-11-22T19:35:07.692Z,27.80
2022-11-22T19:37:38.513Z,27.90
2022-11-22T19:40:09.694Z,27.80
2022-11-22T19:42:41.489Z,27.80
2022-11-22T19:45:12.165Z,27.80
2022-11-22T19:47:42.722Z,27.50
2022-11-22T19:50:12.819Z,27.60
2022-11-22T19:52:42.849Z,27.60
2022-11-22T19:55:15.727Z,27.50
2022-11-22T19:57:45.767Z,27.50
2022-11-22T20:00:16.574Z,27.60
2022-11-22T20:02:46.929Z,27.70
2022-11-22T20:05:17.479Z,27.80
2022-11-22T20:07:47.920Z,27.60
2022-11-22T20:10:18.075Z,27.70
2022-11-22T20:12:48.814Z,27.70
2022-11-22T20:15:20.236Z,27.60
2022-11-22T20:17:50.588Z,27.70
2022-11-22T20:20:20.749Z,27.70
2022-11-22T20:22:50.774Z,27.70
2022-11-22T20:25:20.986Z,27.80
2022-11-22T20:27:51.544Z,27.70
2022-11-22T20:30:22.101Z,27.70
2022-11-22T20:32:53.767Z,27.70
2022-11-22T20:35:24.207Z,27.60
2022-11-22T20:37:54.867Z,27.50
2022-11-22T20:40:25.470Z,27.60
2022-11-22T20:42:55.337Z,27.50
2022-11-22T20:45:25.699Z,27.40
2022-11-22T20:47:56.444Z,27.30
2022-11-22T20:50:26.885Z,27.20
2022-11-22T20:52:57.969Z,27.30
2022-11-22T20:55:28.902Z,27.40
2022-11-22T20:57:59.654Z,27.40
2022-11-22T21:00:31.056Z,27.30
2022-11-22T21:03:01.477Z,27.30
2022-11-22T21:05:32.297Z,27.30
2022-11-22T21:08:05.225Z,27.30
2022-11-22T21:10:36.434Z,27.30
2022-11-22T21:13:06.981Z,27.30
2022-11-22T21:15:37.429Z,27.20
2022-11-22T21:21:05.312Z,27.30
2022-11-22T21:23:36.612Z,27.30
2022-11-22T21:26:08.654Z,27.20
2022-11-22T21:28:41.256Z,27.20
2022-11-22T21:31:11.461Z,27.10
2022-11-22T21:33:42.179Z,27.00
2022-11-22T21:36:13.557Z,27.10
2022-11-22T21:38:44.569Z,27.10
2022-11-22T21:44:08.625Z,27.00
2022-11-22T21:46:39.501Z,27.00
2022-11-22T21:49:09.976Z,27.00
2022-11-22T21:51:40.053Z,26.90
2022-11-22T21:54:10.995Z,26.90
2022-11-22T21:56:41.380Z,26.90
2022-11-22T21:59:13.504Z,27.00
2022-11-22T22:01:43.946Z,26.90
2022-11-22T22:04:14.248Z,26.80
2022-11-22T22:06:46.257Z,26.80
2022-11-22T22:09:17.290Z,26.80
2022-11-22T22:11:49.516Z,26.80
2022-11-22T22:14:19.912Z,26.70
2022-11-22T22:16:50.316Z,26.70
2022-11-22T22:19:20.839Z,26.60
2022-11-22T22:21:51.221Z,26.60
2022-11-22T22:24:22.040Z,26.60
2022-11-22T22:26:52.591Z,26.70
2022-11-22T22:29:23.714Z,26.80
2022-11-22T22:31:54.180Z,26.80
2022-11-22T22:34:24.655Z,26.80
2022-11-22T22:36:54.772Z,26.90
2022-11-22T22:39:24.610Z,26.80
2022-11-22T22:41:54.694Z,26.90
2022-11-22T22:44:24.702Z,26.90
2022-11-22T22:46:54.505Z,26.70
2022-11-22T22:49:24.547Z,26.70
2022-11-22T22:51:56.584Z,26.80
2022-11-22T22:54:27.254Z,26.90
2022-11-22T22:56:58.050Z,26.90
2022-11-22T22:59:29.371Z,26.90
2022-11-22T23:02:00.136Z,26.80
2022-11-22T23:04:30.586Z,26.80
2022-11-22T23:07:01.309Z,26.80
2022-11-22T23:09:31.676Z,26.80
2022-11-22T23:12:21.443Z,26.90
2022-11-22T23:14:51.520Z,26.90
2022-11-22T23:17:21.913Z,26.90
2022-11-22T23:19:52.385Z,27.00
2022-11-22T23:22:25.898Z,27.00
2022-11-22T23:24:56.606Z,27.10
2022-11-22T23:27:26.984Z,27.10
2022-11-22T23:29:57.129Z,27.10
2022-11-22T23:32:27.727Z,27.10
2022-11-22T23:34:58.201Z,27.10
2022-11-22T23:37:28.337Z,27.10
2022-11-22T23:39:58.379Z,27.00
2022-11-22T23:42:28.576Z,26.90
2022-11-22T23:44:59.224Z,26.90
2022-11-22T23:47:31.011Z,26.90
2022-11-22T23:50:01.235Z,26.90
2022-11-22T23:52:31.908Z,26.80
2022-11-22T23:55:02.828Z,26.90
2022-11-22T23:57:33.611Z,26.90
